sensor_id;sensor_type;location;lat;lon;timestamp;temperature;humidity
24041;DHT22;12246;47.612;18.906;2022-07-06T00:02:10;17.70;99.90
24041;DHT22;12246;47.612;18.906;2022-07-06T00:05:02;17.70;99.90
24041;DHT22;12246;47.612;18.906;2022-07-06T00:07:55;17.70;99.90
24041;DHT22;12246;47.612;18.906;2022-07-06T00:10:47;17.60;99.90
24041;DHT22;12246;47.612;18.906;2022-07-06T00:13:39;17.60;99.90
24041;DHT22;12246;47.612;18.906;2022-07-06T00:16:32;17.60;99.90
24041;DHT22;12246;47.612;18.906;2022-07-06T00:19:24;17.50;99.90
24041;DHT22;12246;47.612;18.906;2022-07-06T00:22:16;17.50;99.90
24041;DHT22;12246;47.612;18.906;2022-07-06T00:25:08;17.50;99.90
24041;DHT22;12246;47.612;18.906;2022-07-06T00:28:01;17.50;99.90
24041;DHT22;12246;47.612;18.906;2022-07-06T00:30:53;17.50;99.90
24041;DHT22;12246;47.612;18.906;2022-07-06T00:33:45;17.40;99.90
24041;DHT22;12246;47.612;18.906;2022-07-06T00:36:38;17.30;99.90
24041;DHT22;12246;47.612;18.906;2022-07-06T00:39:30;17.30;99.90
24041;DHT22;12246;47.612;18.906;2022-07-06T00:42:22;17.30;99.90
24041;DHT22;12246;47.612;18.906;2022-07-06T00:45:16;17.20;99.90
24041;DHT22;12246;47.612;18.906;2022-07-06T00:48:08;17.30;99.90
24041;DHT22;12246;47.612;18.906;2022-07-06T00:51:01;17.30;99.90
24041;DHT22;12246;47.612;18.906;2022-07-06T00:53:55;17.20;99.90
24041;DHT22;12246;47.612;18.906;2022-07-06T00:56:48;17.20;99.90
24041;DHT22;12246;47.612;18.906;2022-07-06T00:59:41;17.30;99.90
24041;DHT22;12246;47.612;18.906;2022-07-06T01:02:35;17.20;99.90
24041;DHT22;12246;47.612;18.906;2022-07-06T01:05:27;17.20;99.90
24041;DHT22;12246;47.612;18.906;2022-07-06T01:08:20;17.20;99.90
24041;DHT22;12246;47.612;18.906;2022-07-06T01:11:13;17.10;99.90
24041;DHT22;12246;47.612;18.906;2022-07-06T01:14:06;17.10;99.90
24041;DHT22;12246;47.612;18.906;2022-07-06T01:16:59;17.10;99.90
24041;DHT22;12246;47.612;18.906;2022-07-06T01:19:51;17.10;99.90
24041;DHT22;12246;47.612;18.906;2022-07-06T01:22:45;17.10;99.90
24041;DHT22;12246;47.612;18.906;2022-07-06T01:25:38;17.00;99.90
24041;DHT22;12246;47.612;18.906;2022-07-06T01:28:30;17.00;99.90
24041;DHT22;12246;47.612;18.906;2022-07-06T01:31:24;16.90;99.90
24041;DHT22;12246;47.612;18.906;2022-07-06T01:34:17;16.90;99.90
24041;DHT22;12246;47.612;18.906;2022-07-06T01:37:09;16.90;99.90
24041;DHT22;12246;47.612;18.906;2022-07-06T01:40:04;16.90;99.90
24041;DHT22;12246;47.612;18.906;2022-07-06T01:42:57;16.80;99.90
24041;DHT22;12246;47.612;18.906;2022-07-06T01:45:49;16.80;99.90
24041;DHT22;12246;47.612;18.906;2022-07-06T01:48:41;16.70;99.90
24041;DHT22;12246;47.612;18.906;2022-07-06T01:51:34;16.80;99.90
24041;DHT22;12246;47.612;18.906;2022-07-06T01:54:26;16.70;99.90
24041;DHT22;12246;47.612;18.906;2022-07-06T01:57:18;16.80;99.90
24041;DHT22;12246;47.612;18.906;2022-07-06T02:00:11;16.70;99.90
24041;DHT22;12246;47.612;18.906;2022-07-06T02:03:03;16.70;99.90
24041;DHT22;12246;47.612;18.906;2022-07-06T02:05:55;16.70;99.90
24041;DHT22;12246;47.612;18.906;2022-07-06T02:08:48;16.70;99.90
24041;DHT22;12246;47.612;18.906;2022-07-06T02:11:40;16.70;99.90
24041;DHT22;12246;47.612;18.906;2022-07-06T02:14:32;16.70;99.90
24041;DHT22;12246;47.612;18.906;2022-07-06T02:17:24;16.60;99.90
24041;DHT22;12246;47.612;18.906;2022-07-06T02:20:17;16.60;99.90
24041;DHT22;12246;47.612;18.906;2022-07-06T02:23:09;16.60;99.90
24041;DHT22;12246;47.612;18.906;2022-07-06T02:26:01;16.60;99.90
24041;DHT22;12246;47.612;18.906;2022-07-06T02:28:53;16.60;99.90
24041;DHT22;12246;47.612;18.906;2022-07-06T02:31:46;16.60;99.90
24041;DHT22;12246;47.612;18.906;2022-07-06T02:34:38;16.60;99.90
24041;DHT22;12246;47.612;18.906;2022-07-06T02:37:30;16.60;99.90
24041;DHT22;12246;47.612;18.906;2022-07-06T02:40:23;16.60;99.90
24041;DHT22;12246;47.612;18.906;2022-07-06T02:43:15;16.60;99.90
24041;DHT22;12246;47.612;18.906;2022-07-06T02:46:07;16.60;99.90
24041;DHT22;12246;47.612;18.906;2022-07-06T02:49:00;16.50;99.90
24041;DHT22;12246;47.612;18.906;2022-07-06T02:51:52;16.50;99.90
24041;DHT22;12246;47.612;18.906;2022-07-06T02:54:44;16.50;99.90
24041;DHT22;12246;47.612;18.906;2022-07-06T02:57:37;16.40;99.90
24041;DHT22;12246;47.612;18.906;2022-07-06T03:00:29;16.40;99.90
24041;DHT22;12246;47.612;18.906;2022-07-06T03:03:21;16.40;99.90
24041;DHT22;12246;47.612;18.906;2022-07-06T03:06:14;16.40;99.90
24041;DHT22;12246;47.612;18.906;2022-07-06T03:09:06;16.40;99.90
24041;DHT22;12246;47.612;18.906;2022-07-06T03:11:58;16.40;99.90
24041;DHT22;12246;47.612;18.906;2022-07-06T03:14:50;16.50;99.90
24041;DHT22;12246;47.612;18.906;2022-07-06T03:17:43;16.50;99.90
24041;DHT22;12246;47.612;18.906;2022-07-06T03:20:35;16.70;99.90
24041;DHT22;12246;47.612;18.906;2022-07-06T03:23:27;16.90;99.90
24041;DHT22;12246;47.612;18.906;2022-07-06T03:26:19;17.00;99.90
24041;DHT22;12246;47.612;18.906;2022-07-06T03:29:12;16.90;99.90
24041;DHT22;12246;47.612;18.906;2022-07-06T03:32:04;16.90;99.90
24041;DHT22;12246;47.612;18.906;2022-07-06T03:34:56;17.00;99.90
24041;DHT22;12246;47.612;18.906;2022-07-06T03:37:49;17.10;99.90
24041;DHT22;12246;47.612;18.906;2022-07-06T03:40:41;17.60;99.90
24041;DHT22;12246;47.612;18.906;2022-07-06T03:43:33;18.10;99.90
24041;DHT22;12246;47.612;18.906;2022-07-06T03:46:25;18.60;99.90
24041;DHT22;12246;47.612;18.906;2022-07-06T03:49:19;18.80;99.90
24041;DHT22;12246;47.612;18.906;2022-07-06T03:52:11;19.30;99.90
24041;DHT22;12246;47.612;18.906;2022-07-06T03:55:04;19.80;99.90
24041;DHT22;12246;47.612;18.906;2022-07-06T03:57:56;20.30;99.90
24041;DHT22;12246;47.612;18.906;2022-07-06T04:00:55;20.90;99.90
24041;DHT22;12246;47.612;18.906;2022-07-06T04:03:47;21.60;99.90
24041;DHT22;12246;47.612;18.906;2022-07-06T04:06:39;22.10;99.90
24041;DHT22;12246;47.612;18.906;2022-07-06T04:09:32;22.40;99.90
24041;DHT22;12246;47.612;18.906;2022-07-06T04:12:24;23.40;99.90
24041;DHT22;12246;47.612;18.906;2022-07-06T04:15:17;24.10;99.90
24041;DHT22;12246;47.612;18.906;2022-07-06T04:18:09;24.70;99.90
24041;DHT22;12246;47.612;18.906;2022-07-06T04:21:02;24.70;99.90
24041;DHT22;12246;47.612;18.906;2022-07-06T04:23:54;25.10;99.90
24041;DHT22;12246;47.612;18.906;2022-07-06T04:26:46;25.40;99.90
24041;DHT22;12246;47.612;18.906;2022-07-06T04:29:38;25.30;99.90
24041;DHT22;12246;47.612;18.906;2022-07-06T04:32:31;24.90;99.90
24041;DHT22;12246;47.612;18.906;2022-07-06T04:35:23;24.80;99.90
24041;DHT22;12246;47.612;18.906;2022-07-06T04:38:17;24.80;99.90
24041;DHT22;12246;47.612;18.906;2022-07-06T04:41:09;24.70;99.90
24041;DHT22;12246;47.612;18.906;2022-07-06T04:44:01;24.90;99.90
24041;DHT22;12246;47.612;18.906;2022-07-06T04:46:53;24.90;99.90
24041;DHT22;12246;47.612;18.906;2022-07-06T04:49:46;25.00;99.90
24041;DHT22;12246;47.612;18.906;2022-07-06T04:52:38;25.30;99.90
24041;DHT22;12246;47.612;18.906;2022-07-06T04:55:30;25.30;99.90
24041;DHT22;12246;47.612;18.906;2022-07-06T04:58:23;25.50;99.90
24041;DHT22;12246;47.612;18.906;2022-07-06T05:01:16;25.30;99.90
24041;DHT22;12246;47.612;18.906;2022-07-06T05:04:08;25.20;99.90
24041;DHT22;12246;47.612;18.906;2022-07-06T05:07:00;25.30;99.90
24041;DHT22;12246;47.612;18.906;2022-07-06T05:09:53;25.50;99.90
24041;DHT22;12246;47.612;18.906;2022-07-06T05:12:45;25.60;99.90
24041;DHT22;12246;47.612;18.906;2022-07-06T05:15:37;25.80;99.90
24041;DHT22;12246;47.612;18.906;2022-07-06T05:18:29;26.10;99.90
24041;DHT22;12246;47.612;18.906;2022-07-06T05:21:22;26.10;99.90
24041;DHT22;12246;47.612;18.906;2022-07-06T05:24:14;26.50;99.90
24041;DHT22;12246;47.612;18.906;2022-07-06T05:27:07;26.40;99.90
24041;DHT22;12246;47.612;18.906;2022-07-06T05:29:59;25.90;99.90
24041;DHT22;12246;47.612;18.906;2022-07-06T05:32:52;25.80;99.90
24041;DHT22;12246;47.612;18.906;2022-07-06T05:35:44;25.70;99.90
24041;DHT22;12246;47.612;18.906;2022-07-06T05:38:43;25.80;99.90
24041;DHT22;12246;47.612;18.906;2022-07-06T05:41:35;25.90;99.90
24041;DHT22;12246;47.612;18.906;2022-07-06T05:44:27;25.60;99.90
24041;DHT22;12246;47.612;18.906;2022-07-06T05:47:20;25.40;99.90
24041;DHT22;12246;47.612;18.906;2022-07-06T05:50:30;25.10;99.90
24041;DHT22;12246;47.612;18.906;2022-07-06T05:53:22;25.30;99.90
24041;DHT22;12246;47.612;18.906;2022-07-06T05:56:15;25.50;99.90
24041;DHT22;12246;47.612;18.906;2022-07-06T05:59:07;25.60;99.90
24041;DHT22;12246;47.612;18.906;2022-07-06T06:02:00;25.40;99.90
24041;DHT22;12246;47.612;18.906;2022-07-06T06:04:53;25.60;99.90
24041;DHT22;12246;47.612;18.906;2022-07-06T06:07:46;25.40;99.90
24041;DHT22;12246;47.612;18.906;2022-07-06T06:10:40;25.60;99.90
24041;DHT22;12246;47.612;18.906;2022-07-06T06:13:32;25.90;99.90
24041;DHT22;12246;47.612;18.906;2022-07-06T06:16:24;25.90;99.90
24041;DHT22;12246;47.612;18.906;2022-07-06T06:19:16;25.90;99.90
24041;DHT22;12246;47.612;18.906;2022-07-06T06:22:09;26.10;99.90
24041;DHT22;12246;47.612;18.906;2022-07-06T06:25:01;26.00;99.90
24041;DHT22;12246;47.612;18.906;2022-07-06T06:27:53;26.20;99.90
24041;DHT22;12246;47.612;18.906;2022-07-06T06:30:45;26.20;99.90
24041;DHT22;12246;47.612;18.906;2022-07-06T06:33:38;26.20;99.90
24041;DHT22;12246;47.612;18.906;2022-07-06T06:36:30;26.00;99.90
24041;DHT22;12246;47.612;18.906;2022-07-06T06:39:22;25.70;99.90
24041;DHT22;12246;47.612;18.906;2022-07-06T06:42:15;25.70;99.90
24041;DHT22;12246;47.612;18.906;2022-07-06T06:45:07;26.50;99.90
24041;DHT22;12246;47.612;18.906;2022-07-06T06:48:00;27.00;99.90
24041;DHT22;12246;47.612;18.906;2022-07-06T06:50:52;27.60;99.90
24041;DHT22;12246;47.612;18.906;2022-07-06T06:53:44;27.90;99.90
24041;DHT22;12246;47.612;18.906;2022-07-06T06:56:36;28.10;99.90
24041;DHT22;12246;47.612;18.906;2022-07-06T06:59:29;28.40;99.90
24041;DHT22;12246;47.612;18.906;2022-07-06T07:02:21;28.50;99.90
24041;DHT22;12246;47.612;18.906;2022-07-06T07:05:13;28.60;99.90
24041;DHT22;12246;47.612;18.906;2022-07-06T07:08:05;28.40;99.90
24041;DHT22;12246;47.612;18.906;2022-07-06T07:10:58;28.40;99.90
24041;DHT22;12246;47.612;18.906;2022-07-06T07:13:50;28.00;99.90
24041;DHT22;12246;47.612;18.906;2022-07-06T07:16:42;28.30;99.90
24041;DHT22;12246;47.612;18.906;2022-07-06T07:19:35;28.70;99.90
24041;DHT22;12246;47.612;18.906;2022-07-06T07:22:27;28.10;99.90
24041;DHT22;12246;47.612;18.906;2022-07-06T07:25:19;27.70;99.90
24041;DHT22;12246;47.612;18.906;2022-07-06T07:28:11;27.50;99.90
24041;DHT22;12246;47.612;18.906;2022-07-06T07:31:04;27.40;99.90
24041;DHT22;12246;47.612;18.906;2022-07-06T07:33:57;27.90;99.90
24041;DHT22;12246;47.612;18.906;2022-07-06T07:36:50;28.10;99.90
24041;DHT22;12246;47.612;18.906;2022-07-06T07:39:42;28.70;99.90
24041;DHT22;12246;47.612;18.906;2022-07-06T07:42:35;28.70;99.90
24041;DHT22;12246;47.612;18.906;2022-07-06T07:45:28;28.60;99.90
24041;DHT22;12246;47.612;18.906;2022-07-06T07:48:21;28.40;99.90
24041;DHT22;12246;47.612;18.906;2022-07-06T07:51:13;28.50;99.90
24041;DHT22;12246;47.612;18.906;2022-07-06T07:54:06;28.90;99.90
24041;DHT22;12246;47.612;18.906;2022-07-06T07:56:58;28.80;99.20
24041;DHT22;12246;47.612;18.906;2022-07-06T07:59:51;28.90;99.10
24041;DHT22;12246;47.612;18.906;2022-07-06T08:02:43;28.90;99.10
24041;DHT22;12246;47.612;18.906;2022-07-06T08:05:35;28.90;98.40
24041;DHT22;12246;47.612;18.906;2022-07-06T08:08:27;29.20;98.90
24041;DHT22;12246;47.612;18.906;2022-07-06T08:11:20;29.00;99.00
24041;DHT22;12246;47.612;18.906;2022-07-06T08:14:12;29.30;97.80
24041;DHT22;12246;47.612;18.906;2022-07-06T08:17:06;29.50;98.50
24041;DHT22;12246;47.612;18.906;2022-07-06T08:19:58;29.40;97.60
24041;DHT22;12246;47.612;18.906;2022-07-06T08:22:50;29.40;97.30
24041;DHT22;12246;47.612;18.906;2022-07-06T08:25:43;29.40;97.40
24041;DHT22;12246;47.612;18.906;2022-07-06T08:28:35;29.50;97.10
24041;DHT22;12246;47.612;18.906;2022-07-06T08:31:28;29.40;96.20
24041;DHT22;12246;47.612;18.906;2022-07-06T08:34:40;29.10;95.80
24041;DHT22;12246;47.612;18.906;2022-07-06T08:37:33;28.90;96.00
24041;DHT22;12246;47.612;18.906;2022-07-06T08:40:29;28.90;95.60
24041;DHT22;12246;47.612;18.906;2022-07-06T08:43:23;29.10;95.10
24041;DHT22;12246;47.612;18.906;2022-07-06T08:46:16;29.00;95.30
24041;DHT22;12246;47.612;18.906;2022-07-06T08:49:13;29.10;96.30
24041;DHT22;12246;47.612;18.906;2022-07-06T08:52:07;29.30;95.20
24041;DHT22;12246;47.612;18.906;2022-07-06T08:55:00;29.40;94.60
24041;DHT22;12246;47.612;18.906;2022-07-06T08:57:55;29.40;94.30
24041;DHT22;12246;47.612;18.906;2022-07-06T09:00:47;29.20;93.80
24041;DHT22;12246;47.612;18.906;2022-07-06T09:03:41;29.00;94.00
24041;DHT22;12246;47.612;18.906;2022-07-06T09:06:33;28.90;93.90
24041;DHT22;12246;47.612;18.906;2022-07-06T09:09:29;28.90;94.60
24041;DHT22;12246;47.612;18.906;2022-07-06T09:12:26;29.00;95.00
24041;DHT22;12246;47.612;18.906;2022-07-06T09:15:19;29.20;93.70
24041;DHT22;12246;47.612;18.906;2022-07-06T09:18:15;29.40;93.00
24041;DHT22;12246;47.612;18.906;2022-07-06T09:21:08;29.70;92.00
24041;DHT22;12246;47.612;18.906;2022-07-06T09:24:01;29.80;92.20
24041;DHT22;12246;47.612;18.906;2022-07-06T09:26:58;29.70;91.50
24041;DHT22;12246;47.612;18.906;2022-07-06T09:29:50;29.80;91.50
24041;DHT22;12246;47.612;18.906;2022-07-06T09:32:45;29.90;90.80
24041;DHT22;12246;47.612;18.906;2022-07-06T09:35:38;29.90;90.00
24041;DHT22;12246;47.612;18.906;2022-07-06T09:38:31;29.70;90.90
24041;DHT22;12246;47.612;18.906;2022-07-06T09:41:32;29.90;90.90
24041;DHT22;12246;47.612;18.906;2022-07-06T09:44:29;30.00;90.70
24041;DHT22;12246;47.612;18.906;2022-07-06T09:47:22;30.10;88.10
24041;DHT22;12246;47.612;18.906;2022-07-06T09:50:16;30.00;89.70
24041;DHT22;12246;47.612;18.906;2022-07-06T09:53:10;29.80;87.20
24041;DHT22;12246;47.612;18.906;2022-07-06T09:56:02;29.70;84.80
24041;DHT22;12246;47.612;18.906;2022-07-06T09:58:56;29.90;86.80
24041;DHT22;12246;47.612;18.906;2022-07-06T10:02:00;29.80;83.70
24041;DHT22;12246;47.612;18.906;2022-07-06T10:04:54;29.90;83.90
24041;DHT22;12246;47.612;18.906;2022-07-06T10:07:49;29.90;84.60
24041;DHT22;12246;47.612;18.906;2022-07-06T10:10:43;29.90;83.20
24041;DHT22;12246;47.612;18.906;2022-07-06T10:13:36;29.70;83.90
24041;DHT22;12246;47.612;18.906;2022-07-06T10:16:29;29.90;83.90
24041;DHT22;12246;47.612;18.906;2022-07-06T10:19:21;30.10;81.60
24041;DHT22;12246;47.612;18.906;2022-07-06T10:22:14;30.20;80.30
24041;DHT22;12246;47.612;18.906;2022-07-06T10:25:07;30.20;80.40
24041;DHT22;12246;47.612;18.906;2022-07-06T10:28:00;30.50;79.30
24041;DHT22;12246;47.612;18.906;2022-07-06T10:30:52;30.40;74.10
24041;DHT22;12246;47.612;18.906;2022-07-06T10:33:45;30.00;76.90
24041;DHT22;12246;47.612;18.906;2022-07-06T10:36:40;30.00;78.50
24041;DHT22;12246;47.612;18.906;2022-07-06T10:42:49;30.10;77.00
24041;DHT22;12246;47.612;18.906;2022-07-06T10:48:41;29.60;76.80
24041;DHT22;12246;47.612;18.906;2022-07-06T10:51:40;29.70;77.20
24041;DHT22;12246;47.612;18.906;2022-07-06T10:54:39;29.60;76.30
24041;DHT22;12246;47.612;18.906;2022-07-06T10:57:40;29.70;78.10
24041;DHT22;12246;47.612;18.906;2022-07-06T11:00:55;29.70;74.60
24041;DHT22;12246;47.612;18.906;2022-07-06T11:04:05;29.50;74.40
24041;DHT22;12246;47.612;18.906;2022-07-06T11:07:07;29.60;75.00
24041;DHT22;12246;47.612;18.906;2022-07-06T11:10:00;30.00;76.20
24041;DHT22;12246;47.612;18.906;2022-07-06T11:12:59;30.00;74.70
24041;DHT22;12246;47.612;18.906;2022-07-06T11:16:00;29.90;75.60
24041;DHT22;12246;47.612;18.906;2022-07-06T11:22:06;29.90;74.90
24041;DHT22;12246;47.612;18.906;2022-07-06T11:24:58;29.90;74.00
24041;DHT22;12246;47.612;18.906;2022-07-06T11:27:52;30.00;71.90
24041;DHT22;12246;47.612;18.906;2022-07-06T11:30:47;30.10;72.90
24041;DHT22;12246;47.612;18.906;2022-07-06T11:33:39;30.00;72.30
24041;DHT22;12246;47.612;18.906;2022-07-06T11:36:32;30.10;70.30
24041;DHT22;12246;47.612;18.906;2022-07-06T11:39:30;29.80;68.80
24041;DHT22;12246;47.612;18.906;2022-07-06T11:42:23;29.70;69.20
24041;DHT22;12246;47.612;18.906;2022-07-06T11:45:26;29.60;68.70
24041;DHT22;12246;47.612;18.906;2022-07-06T11:48:18;29.70;69.00
24041;DHT22;12246;47.612;18.906;2022-07-06T11:51:11;29.70;68.80
24041;DHT22;12246;47.612;18.906;2022-07-06T11:54:12;29.40;67.90
24041;DHT22;12246;47.612;18.906;2022-07-06T11:57:08;29.20;67.60
24041;DHT22;12246;47.612;18.906;2022-07-06T12:00:01;28.80;67.10
24041;DHT22;12246;47.612;18.906;2022-07-06T12:03:00;28.50;70.40
24041;DHT22;12246;47.612;18.906;2022-07-06T12:05:53;28.70;68.80
24041;DHT22;12246;47.612;18.906;2022-07-06T12:08:47;28.80;68.20
24041;DHT22;12246;47.612;18.906;2022-07-06T12:11:40;29.10;67.90
24041;DHT22;12246;47.612;18.906;2022-07-06T12:14:37;29.20;68.40
24041;DHT22;12246;47.612;18.906;2022-07-06T12:17:30;29.40;67.80
24041;DHT22;12246;47.612;18.906;2022-07-06T12:20:23;29.40;67.60
24041;DHT22;12246;47.612;18.906;2022-07-06T12:23:17;29.40;66.80
24041;DHT22;12246;47.612;18.906;2022-07-06T12:26:09;29.40;65.10
24041;DHT22;12246;47.612;18.906;2022-07-06T12:29:07;29.00;62.80
24041;DHT22;12246;47.612;18.906;2022-07-06T12:32:05;28.50;63.90
24041;DHT22;12246;47.612;18.906;2022-07-06T12:35:04;28.20;64.50
24041;DHT22;12246;47.612;18.906;2022-07-06T12:37:57;28.20;63.10
24041;DHT22;12246;47.612;18.906;2022-07-06T12:40:49;28.20;63.40
24041;DHT22;12246;47.612;18.906;2022-07-06T12:43:41;27.90;64.00
24041;DHT22;12246;47.612;18.906;2022-07-06T12:46:39;27.80;65.60
24041;DHT22;12246;47.612;18.906;2022-07-06T12:49:32;27.90;64.70
24041;DHT22;12246;47.612;18.906;2022-07-06T12:52:28;28.00;64.30
24041;DHT22;12246;47.612;18.906;2022-07-06T12:55:25;27.90;65.00
24041;DHT22;12246;47.612;18.906;2022-07-06T12:58:19;27.60;65.10
24041;DHT22;12246;47.612;18.906;2022-07-06T13:01:14;27.70;64.90
24041;DHT22;12246;47.612;18.906;2022-07-06T13:04:07;27.80;62.90
24041;DHT22;12246;47.612;18.906;2022-07-06T13:07:01;28.00;64.40
24041;DHT22;12246;47.612;18.906;2022-07-06T13:09:59;28.10;63.40
24041;DHT22;12246;47.612;18.906;2022-07-06T13:12:51;28.30;65.30
24041;DHT22;12246;47.612;18.906;2022-07-06T13:15:43;28.30;68.60
24041;DHT22;12246;47.612;18.906;2022-07-06T13:18:35;28.10;69.80
24041;DHT22;12246;47.612;18.906;2022-07-06T13:21:28;27.80;70.40
24041;DHT22;12246;47.612;18.906;2022-07-06T13:24:20;27.50;70.20
24041;DHT22;12246;47.612;18.906;2022-07-06T13:27:13;27.40;71.20
24041;DHT22;12246;47.612;18.906;2022-07-06T13:30:05;27.50;71.20
24041;DHT22;12246;47.612;18.906;2022-07-06T13:32:58;27.40;71.00
24041;DHT22;12246;47.612;18.906;2022-07-06T13:35:50;27.60;70.90
24041;DHT22;12246;47.612;18.906;2022-07-06T13:38:42;27.70;70.70
24041;DHT22;12246;47.612;18.906;2022-07-06T13:41:34;27.80;70.00
24041;DHT22;12246;47.612;18.906;2022-07-06T13:44:28;27.50;69.90
24041;DHT22;12246;47.612;18.906;2022-07-06T13:47:20;27.40;71.70
24041;DHT22;12246;47.612;18.906;2022-07-06T13:50:13;27.30;68.70
24041;DHT22;12246;47.612;18.906;2022-07-06T13:53:06;27.40;69.90
24041;DHT22;12246;47.612;18.906;2022-07-06T13:55:58;27.40;69.00
24041;DHT22;12246;47.612;18.906;2022-07-06T13:58:50;27.20;69.80
24041;DHT22;12246;47.612;18.906;2022-07-06T14:01:43;27.20;70.80
24041;DHT22;12246;47.612;18.906;2022-07-06T14:04:35;27.30;70.70
24041;DHT22;12246;47.612;18.906;2022-07-06T14:07:27;27.50;71.00
24041;DHT22;12246;47.612;18.906;2022-07-06T14:10:20;27.40;68.10
24041;DHT22;12246;47.612;18.906;2022-07-06T14:13:12;27.30;69.50
24041;DHT22;12246;47.612;18.906;2022-07-06T14:16:11;27.20;70.40
24041;DHT22;12246;47.612;18.906;2022-07-06T14:19:03;27.10;68.30
24041;DHT22;12246;47.612;18.906;2022-07-06T14:21:55;27.00;68.00
24041;DHT22;12246;47.612;18.906;2022-07-06T14:24:51;26.90;67.70
24041;DHT22;12246;47.612;18.906;2022-07-06T14:27:43;27.00;66.80
24041;DHT22;12246;47.612;18.906;2022-07-06T14:30:36;27.00;65.50
24041;DHT22;12246;47.612;18.906;2022-07-06T14:33:28;26.90;64.80
24041;DHT22;12246;47.612;18.906;2022-07-06T14:36:21;26.80;65.70
24041;DHT22;12246;47.612;18.906;2022-07-06T14:39:13;26.80;65.10
24041;DHT22;12246;47.612;18.906;2022-07-06T14:42:06;26.60;64.40
24041;DHT22;12246;47.612;18.906;2022-07-06T14:44:58;26.60;65.40
24041;DHT22;12246;47.612;18.906;2022-07-06T14:47:50;26.60;65.40
24041;DHT22;12246;47.612;18.906;2022-07-06T14:50:43;26.70;65.30
24041;DHT22;12246;47.612;18.906;2022-07-06T14:53:35;26.70;65.80
24041;DHT22;12246;47.612;18.906;2022-07-06T14:56:27;26.70;64.30
24041;DHT22;12246;47.612;18.906;2022-07-06T14:59:20;26.70;64.10
24041;DHT22;12246;47.612;18.906;2022-07-06T15:02:16;26.60;64.00
24041;DHT22;12246;47.612;18.906;2022-07-06T15:05:10;26.60;64.10
24041;DHT22;12246;47.612;18.906;2022-07-06T15:08:04;26.70;65.10
24041;DHT22;12246;47.612;18.906;2022-07-06T15:10:56;26.70;65.00
24041;DHT22;12246;47.612;18.906;2022-07-06T15:13:48;26.60;65.30
24041;DHT22;12246;47.612;18.906;2022-07-06T15:16:45;26.60;64.80
24041;DHT22;12246;47.612;18.906;2022-07-06T15:19:37;26.60;65.80
24041;DHT22;12246;47.612;18.906;2022-07-06T15:22:29;26.50;65.10
24041;DHT22;12246;47.612;18.906;2022-07-06T15:25:22;26.30;65.90
24041;DHT22;12246;47.612;18.906;2022-07-06T15:28:16;26.20;66.40
24041;DHT22;12246;47.612;18.906;2022-07-06T15:31:11;26.20;65.40
24041;DHT22;12246;47.612;18.906;2022-07-06T15:34:08;26.30;66.20
24041;DHT22;12246;47.612;18.906;2022-07-06T15:37:00;26.30;66.20
24041;DHT22;12246;47.612;18.906;2022-07-06T15:39:53;26.30;66.20
24041;DHT22;12246;47.612;18.906;2022-07-06T15:42:45;26.30;66.60
24041;DHT22;12246;47.612;18.906;2022-07-06T15:45:37;26.30;65.60
24041;DHT22;12246;47.612;18.906;2022-07-06T15:48:30;26.20;65.00
24041;DHT22;12246;47.612;18.906;2022-07-06T15:51:23;26.10;65.10
24041;DHT22;12246;47.612;18.906;2022-07-06T15:54:15;25.90;65.60
24041;DHT22;12246;47.612;18.906;2022-07-06T15:57:08;25.90;66.30
24041;DHT22;12246;47.612;18.906;2022-07-06T16:00:00;25.80;65.70
24041;DHT22;12246;47.612;18.906;2022-07-06T16:02:53;25.80;67.20
24041;DHT22;12246;47.612;18.906;2022-07-06T16:05:45;25.80;67.70
24041;DHT22;12246;47.612;18.906;2022-07-06T16:08:59;25.70;68.20
24041;DHT22;12246;47.612;18.906;2022-07-06T16:11:51;25.70;68.10
24041;DHT22;12246;47.612;18.906;2022-07-06T16:14:43;25.70;67.70
24041;DHT22;12246;47.612;18.906;2022-07-06T16:17:36;25.70;66.60
24041;DHT22;12246;47.612;18.906;2022-07-06T16:20:28;25.70;66.70
24041;DHT22;12246;47.612;18.906;2022-07-06T16:23:21;25.60;66.80
24041;DHT22;12246;47.612;18.906;2022-07-06T16:26:14;25.60;67.50
24041;DHT22;12246;47.612;18.906;2022-07-06T16:29:07;25.60;66.70
24041;DHT22;12246;47.612;18.906;2022-07-06T16:31:59;25.50;67.60
24041;DHT22;12246;47.612;18.906;2022-07-06T16:34:51;25.50;68.10
24041;DHT22;12246;47.612;18.906;2022-07-06T16:37:43;25.40;68.60
24041;DHT22;12246;47.612;18.906;2022-07-06T16:40:36;25.40;68.90
24041;DHT22;12246;47.612;18.906;2022-07-06T16:43:28;25.40;69.10
24041;DHT22;12246;47.612;18.906;2022-07-06T16:46:21;25.40;70.10
24041;DHT22;12246;47.612;18.906;2022-07-06T16:49:14;25.40;69.90
24041;DHT22;12246;47.612;18.906;2022-07-06T16:52:06;25.40;70.70
24041;DHT22;12246;47.612;18.906;2022-07-06T16:54:59;25.30;70.80
24041;DHT22;12246;47.612;18.906;2022-07-06T16:57:51;25.30;70.00
24041;DHT22;12246;47.612;18.906;2022-07-06T17:00:44;25.30;69.50
24041;DHT22;12246;47.612;18.906;2022-07-06T17:03:36;25.20;69.20
24041;DHT22;12246;47.612;18.906;2022-07-06T17:06:29;25.10;69.50
24041;DHT22;12246;47.612;18.906;2022-07-06T17:09:21;25.10;69.10
24041;DHT22;12246;47.612;18.906;2022-07-06T17:12:14;25.00;70.10
24041;DHT22;12246;47.612;18.906;2022-07-06T17:15:07;25.00;69.70
24041;DHT22;12246;47.612;18.906;2022-07-06T17:17:59;25.10;69.90
24041;DHT22;12246;47.612;18.906;2022-07-06T17:20:52;25.00;68.70
24041;DHT22;12246;47.612;18.906;2022-07-06T17:23:44;25.00;68.30
24041;DHT22;12246;47.612;18.906;2022-07-06T17:26:37;25.00;69.10
24041;DHT22;12246;47.612;18.906;2022-07-06T17:29:30;25.00;67.80
24041;DHT22;12246;47.612;18.906;2022-07-06T17:32:23;25.00;67.80
24041;DHT22;12246;47.612;18.906;2022-07-06T17:35:15;24.90;67.80
24041;DHT22;12246;47.612;18.906;2022-07-06T17:38:07;24.80;66.50
24041;DHT22;12246;47.612;18.906;2022-07-06T17:41:00;24.70;66.20
24041;DHT22;12246;47.612;18.906;2022-07-06T17:43:52;24.50;66.40
24041;DHT22;12246;47.612;18.906;2022-07-06T17:46:44;24.60;67.10
24041;DHT22;12246;47.612;18.906;2022-07-06T17:49:36;24.50;68.10
24041;DHT22;12246;47.612;18.906;2022-07-06T17:52:29;24.50;67.80
24041;DHT22;12246;47.612;18.906;2022-07-06T17:55:21;24.40;68.10
24041;DHT22;12246;47.612;18.906;2022-07-06T17:58:16;24.30;68.30
24041;DHT22;12246;47.612;18.906;2022-07-06T18:01:08;24.30;69.10
24041;DHT22;12246;47.612;18.906;2022-07-06T18:04:01;24.20;69.00
24041;DHT22;12246;47.612;18.906;2022-07-06T18:06:53;24.20;69.30